sensor_id;sensor_type;location;lat;lon;timestamp;temperature;humidity
39371;DHT22;25099;51.946;4.838;2023-05-10T00:01:58;14.80;99.90
39371;DHT22;25099;51.946;4.838;2023-05-10T00:04:24;14.80;99.90
39371;DHT22;25099;51.946;4.838;2023-05-10T00:06:53;14.80;99.90
39371;DHT22;25099;51.946;4.838;2023-05-10T00:09:19;14.80;99.90
39371;DHT22;25099;51.946;4.838;2023-05-10T00:11:44;14.80;99.90
39371;DHT22;25099;51.946;4.838;2023-05-10T00:14:10;14.70;99.90
39371;DHT22;25099;51.946;4.838;2023-05-10T00:16:36;14.70;99.90
39371;DHT22;25099;51.946;4.838;2023-05-10T00:19:02;14.60;99.90
39371;DHT22;25099;51.946;4.838;2023-05-10T00:21:28;14.70;99.90
39371;DHT22;25099;51.946;4.838;2023-05-10T00:23:54;14.60;99.90
39371;DHT22;25099;51.946;4.838;2023-05-10T00:26:20;14.50;99.90
39371;DHT22;25099;51.946;4.838;2023-05-10T00:28:45;14.50;99.90
39371;DHT22;25099;51.946;4.838;2023-05-10T00:31:11;14.50;99.90
39371;DHT22;25099;51.946;4.838;2023-05-10T00:33:36;14.50;99.90
39371;DHT22;25099;51.946;4.838;2023-05-10T00:36:02;14.50;99.90
39371;DHT22;25099;51.946;4.838;2023-05-10T00:38:28;14.50;99.90
39371;DHT22;25099;51.946;4.838;2023-05-10T00:40:53;14.40;99.90
39371;DHT22;25099;51.946;4.838;2023-05-10T00:43:19;14.40;99.90
39371;DHT22;25099;51.946;4.838;2023-05-10T00:45:45;14.50;99.90
39371;DHT22;25099;51.946;4.838;2023-05-10T00:48:10;14.50;99.90
39371;DHT22;25099;51.946;4.838;2023-05-10T00:50:36;14.50;99.90
39371;DHT22;25099;51.946;4.838;2023-05-10T00:53:02;14.50;99.90
39371;DHT22;25099;51.946;4.838;2023-05-10T00:55:28;14.50;99.90
39371;DHT22;25099;51.946;4.838;2023-05-10T00:57:54;14.50;99.90
39371;DHT22;25099;51.946;4.838;2023-05-10T01:00:20;14.60;99.90
39371;DHT22;25099;51.946;4.838;2023-05-10T01:02:46;14.70;99.90
39371;DHT22;25099;51.946;4.838;2023-05-10T01:05:12;14.70;99.90
39371;DHT22;25099;51.946;4.838;2023-05-10T01:07:37;14.60;99.90
39371;DHT22;25099;51.946;4.838;2023-05-10T01:10:04;14.70;99.90
39371;DHT22;25099;51.946;4.838;2023-05-10T01:12:30;14.60;99.90
39371;DHT22;25099;51.946;4.838;2023-05-10T01:14:55;14.60;99.90
39371;DHT22;25099;51.946;4.838;2023-05-10T01:17:22;14.60;99.90
39371;DHT22;25099;51.946;4.838;2023-05-10T01:19:48;14.60;99.90
39371;DHT22;25099;51.946;4.838;2023-05-10T01:22:40;14.70;99.90
39371;DHT22;25099;51.946;4.838;2023-05-10T01:25:18;14.60;99.90
39371;DHT22;25099;51.946;4.838;2023-05-10T01:27:54;14.60;99.90
39371;DHT22;25099;51.946;4.838;2023-05-10T01:33:39;14.50;99.90
39371;DHT22;25099;51.946;4.838;2023-05-10T01:39:02;14.60;99.90
39371;DHT22;25099;51.946;4.838;2023-05-10T01:44:24;14.50;99.90
39371;DHT22;25099;51.946;4.838;2023-05-10T01:46:57;14.40;99.90
39371;DHT22;25099;51.946;4.838;2023-05-10T01:49:29;14.40;99.90
39371;DHT22;25099;51.946;4.838;2023-05-10T01:52:09;14.40;99.90
39371;DHT22;25099;51.946;4.838;2023-05-10T01:54:41;14.50;99.90
39371;DHT22;25099;51.946;4.838;2023-05-10T01:57:09;14.50;99.90
39371;DHT22;25099;51.946;4.838;2023-05-10T01:59:38;14.50;99.90
39371;DHT22;25099;51.946;4.838;2023-05-10T02:02:07;14.60;99.90
39371;DHT22;25099;51.946;4.838;2023-05-10T02:04:35;14.60;99.90
39371;DHT22;25099;51.946;4.838;2023-05-10T02:07:03;14.60;99.90
39371;DHT22;25099;51.946;4.838;2023-05-10T02:09:30;14.60;99.90
39371;DHT22;25099;51.946;4.838;2023-05-10T02:11:58;14.80;99.90
39371;DHT22;25099;51.946;4.838;2023-05-10T02:14:26;14.70;99.90
39371;DHT22;25099;51.946;4.838;2023-05-10T02:16:52;14.70;99.90
39371;DHT22;25099;51.946;4.838;2023-05-10T02:19:19;15.00;99.90
39371;DHT22;25099;51.946;4.838;2023-05-10T02:21:46;14.60;99.90
39371;DHT22;25099;51.946;4.838;2023-05-10T02:24:14;14.60;99.90
39371;DHT22;25099;51.946;4.838;2023-05-10T02:26:42;14.60;99.90
39371;DHT22;25099;51.946;4.838;2023-05-10T02:29:08;14.60;99.90
39371;DHT22;25099;51.946;4.838;2023-05-10T02:31:35;14.50;99.90
39371;DHT22;25099;51.946;4.838;2023-05-10T02:34:01;14.50;99.90
39371;DHT22;25099;51.946;4.838;2023-05-10T02:36:28;14.60;99.90
39371;DHT22;25099;51.946;4.838;2023-05-10T02:38:55;14.60;99.90
39371;DHT22;25099;51.946;4.838;2023-05-10T02:41:22;14.60;99.90
39371;DHT22;25099;51.946;4.838;2023-05-10T02:43:50;14.60;99.90
39371;DHT22;25099;51.946;4.838;2023-05-10T02:46:17;14.60;99.90
39371;DHT22;25099;51.946;4.838;2023-05-10T02:48:43;14.60;99.90
39371;DHT22;25099;51.946;4.838;2023-05-10T02:51:11;14.50;99.90
39371;DHT22;25099;51.946;4.838;2023-05-10T02:53:38;14.60;99.90
39371;DHT22;25099;51.946;4.838;2023-05-10T02:56:25;14.60;99.90
39371;DHT22;25099;51.946;4.838;2023-05-10T02:58:53;14.60;99.90
39371;DHT22;25099;51.946;4.838;2023-05-10T03:01:18;14.60;99.90
39371;DHT22;25099;51.946;4.838;2023-05-10T03:03:44;14.60;99.90
39371;DHT22;25099;51.946;4.838;2023-05-10T03:06:10;14.90;99.90
39371;DHT22;25099;51.946;4.838;2023-05-10T03:08:35;14.60;99.90
39371;DHT22;25099;51.946;4.838;2023-05-10T03:16:50;14.70;99.90
39371;DHT22;25099;51.946;4.838;2023-05-10T03:19:24;14.70;99.90
39371;DHT22;25099;51.946;4.838;2023-05-10T03:21:53;14.70;99.90
39371;DHT22;25099;51.946;4.838;2023-05-10T03:24:22;14.70;99.90
39371;DHT22;25099;51.946;4.838;2023-05-10T03:26:49;14.70;99.90
39371;DHT22;25099;51.946;4.838;2023-05-10T03:29:17;14.70;99.90
39371;DHT22;25099;51.946;4.838;2023-05-10T03:31:43;14.70;99.90
39371;DHT22;25099;51.946;4.838;2023-05-10T03:34:08;14.70;99.90
39371;DHT22;25099;51.946;4.838;2023-05-10T03:36:34;14.70;99.90
39371;DHT22;25099;51.946;4.838;2023-05-10T03:38:59;14.90;99.90
39371;DHT22;25099;51.946;4.838;2023-05-10T03:41:25;14.70;99.90
39371;DHT22;25099;51.946;4.838;2023-05-10T03:43:51;14.60;99.90
39371;DHT22;25099;51.946;4.838;2023-05-10T03:46:16;14.60;99.90
39371;DHT22;25099;51.946;4.838;2023-05-10T03:48:42;14.60;99.90
39371;DHT22;25099;51.946;4.838;2023-05-10T03:51:08;14.60;99.90
39371;DHT22;25099;51.946;4.838;2023-05-10T03:53:33;14.60;99.90
39371;DHT22;25099;51.946;4.838;2023-05-10T03:55:59;14.50;99.90
39371;DHT22;25099;51.946;4.838;2023-05-10T03:58:24;14.60;99.90
39371;DHT22;25099;51.946;4.838;2023-05-10T04:00:51;14.50;99.90
39371;DHT22;25099;51.946;4.838;2023-05-10T04:03:17;14.50;99.90
39371;DHT22;25099;51.946;4.838;2023-05-10T04:05:43;14.60;99.90
39371;DHT22;25099;51.946;4.838;2023-05-10T04:08:08;14.50;99.90
39371;DHT22;25099;51.946;4.838;2023-05-10T04:10:34;14.60;99.90
39371;DHT22;25099;51.946;4.838;2023-05-10T04:13:00;14.50;99.90
39371;DHT22;25099;51.946;4.838;2023-05-10T04:15:25;14.50;99.90
39371;DHT22;25099;51.946;4.838;2023-05-10T04:17:51;14.50;99.90
39371;DHT22;25099;51.946;4.838;2023-05-10T04:20:17;14.50;99.90
39371;DHT22;25099;51.946;4.838;2023-05-10T04:22:42;14.50;99.90
39371;DHT22;25099;51.946;4.838;2023-05-10T04:25:08;14.50;99.90
39371;DHT22;25099;51.946;4.838;2023-05-10T04:27:34;14.50;99.90
39371;DHT22;25099;51.946;4.838;2023-05-10T04:29:59;14.50;99.90
39371;DHT22;25099;51.946;4.838;2023-05-10T04:32:25;14.50;99.90
39371;DHT22;25099;51.946;4.838;2023-05-10T04:34:51;14.50;99.90
39371;DHT22;25099;51.946;4.838;2023-05-10T04:37:16;14.50;99.90
39371;DHT22;25099;51.946;4.838;2023-05-10T04:39:42;14.50;99.90
39371;DHT22;25099;51.946;4.838;2023-05-10T04:42:08;14.50;99.90
39371;DHT22;25099;51.946;4.838;2023-05-10T04:44:33;14.50;99.90
39371;DHT22;25099;51.946;4.838;2023-05-10T04:46:59;14.50;99.90
39371;DHT22;25099;51.946;4.838;2023-05-10T04:49:25;14.50;99.90
39371;DHT22;25099;51.946;4.838;2023-05-10T04:51:50;14.50;99.90
39371;DHT22;25099;51.946;4.838;2023-05-10T04:54:16;14.50;99.90
39371;DHT22;25099;51.946;4.838;2023-05-10T04:56:41;14.30;99.90
39371;DHT22;25099;51.946;4.838;2023-05-10T04:59:07;14.40;99.90
39371;DHT22;25099;51.946;4.838;2023-05-10T05:01:33;14.50;99.90
39371;DHT22;25099;51.946;4.838;2023-05-10T05:03:58;14.40;99.90
39371;DHT22;25099;51.946;4.838;2023-05-10T05:06:24;14.70;99.90
39371;DHT22;25099;51.946;4.838;2023-05-10T05:08:51;14.40;99.90
39371;DHT22;25099;51.946;4.838;2023-05-10T05:11:17;14.40;99.90
39371;DHT22;25099;51.946;4.838;2023-05-10T05:13:42;14.40;99.90
39371;DHT22;25099;51.946;4.838;2023-05-10T05:16:08;14.40;99.90
39371;DHT22;25099;51.946;4.838;2023-05-10T05:18:34;14.40;99.90
39371;DHT22;25099;51.946;4.838;2023-05-10T05:20:59;14.40;99.90
39371;DHT22;25099;51.946;4.838;2023-05-10T05:23:25;14.40;99.90
39371;DHT22;25099;51.946;4.838;2023-05-10T05:25:52;14.40;99.90
39371;DHT22;25099;51.946;4.838;2023-05-10T05:28:19;14.40;99.90
39371;DHT22;25099;51.946;4.838;2023-05-10T05:30:44;14.40;99.90
39371;DHT22;25099;51.946;4.838;2023-05-10T05:33:10;14.40;99.90
39371;DHT22;25099;51.946;4.838;2023-05-10T05:35:36;14.40;99.90
39371;DHT22;25099;51.946;4.838;2023-05-10T05:38:01;14.30;99.90
39371;DHT22;25099;51.946;4.838;2023-05-10T05:40:27;14.30;99.90
39371;DHT22;25099;51.946;4.838;2023-05-10T05:42:52;14.60;99.90
39371;DHT22;25099;51.946;4.838;2023-05-10T05:45:18;14.40;99.90
39371;DHT22;25099;51.946;4.838;2023-05-10T05:47:43;14.40;99.90
39371;DHT22;25099;51.946;4.838;2023-05-10T05:50:09;14.30;99.90
39371;DHT22;25099;51.946;4.838;2023-05-10T05:52:35;14.30;99.90
39371;DHT22;25099;51.946;4.838;2023-05-10T05:55:01;14.30;99.90
39371;DHT22;25099;51.946;4.838;2023-05-10T05:57:27;14.20;99.90
39371;DHT22;25099;51.946;4.838;2023-05-10T05:59:52;14.20;99.90
39371;DHT22;25099;51.946;4.838;2023-05-10T06:02:18;14.20;99.90
39371;DHT22;25099;51.946;4.838;2023-05-10T06:04:43;14.30;99.90
39371;DHT22;25099;51.946;4.838;2023-05-10T06:07:09;14.30;99.90
39371;DHT22;25099;51.946;4.838;2023-05-10T06:09:35;14.30;99.90
39371;DHT22;25099;51.946;4.838;2023-05-10T06:12:00;14.30;99.90
39371;DHT22;25099;51.946;4.838;2023-05-10T06:14:26;14.30;99.90
39371;DHT22;25099;51.946;4.838;2023-05-10T06:16:52;14.20;99.90
39371;DHT22;25099;51.946;4.838;2023-05-10T06:19:18;14.40;99.90
39371;DHT22;25099;51.946;4.838;2023-05-10T06:21:43;14.20;99.90
39371;DHT22;25099;51.946;4.838;2023-05-10T06:24:09;14.20;99.90
39371;DHT22;25099;51.946;4.838;2023-05-10T06:26:34;14.20;99.90
39371;DHT22;25099;51.946;4.838;2023-05-10T06:29:00;14.20;99.90
39371;DHT22;25099;51.946;4.838;2023-05-10T06:31:26;14.30;99.90
39371;DHT22;25099;51.946;4.838;2023-05-10T06:33:52;14.30;99.90
39371;DHT22;25099;51.946;4.838;2023-05-10T06:36:17;14.20;99.90
39371;DHT22;25099;51.946;4.838;2023-05-10T06:38:43;14.30;99.90
39371;DHT22;25099;51.946;4.838;2023-05-10T06:41:08;14.30;99.90
39371;DHT22;25099;51.946;4.838;2023-05-10T06:43:34;14.30;99.90
39371;DHT22;25099;51.946;4.838;2023-05-10T06:46:00;14.40;99.90
39371;DHT22;25099;51.946;4.838;2023-05-10T06:48:25;14.40;99.90
39371;DHT22;25099;51.946;4.838;2023-05-10T06:50:51;14.40;99.90
39371;DHT22;25099;51.946;4.838;2023-05-10T06:53:16;14.40;99.90
39371;DHT22;25099;51.946;4.838;2023-05-10T06:55:42;14.30;99.90
39371;DHT22;25099;51.946;4.838;2023-05-10T06:58:07;14.40;99.90
39371;DHT22;25099;51.946;4.838;2023-05-10T07:00:33;14.40;99.90
39371;DHT22;25099;51.946;4.838;2023-05-10T07:02:58;14.50;99.90
39371;DHT22;25099;51.946;4.838;2023-05-10T07:05:24;14.50;99.90
39371;DHT22;25099;51.946;4.838;2023-05-10T07:07:50;14.50;99.90
39371;DHT22;25099;51.946;4.838;2023-05-10T07:10:15;14.50;99.90
39371;DHT22;25099;51.946;4.838;2023-05-10T07:12:41;14.40;99.90
39371;DHT22;25099;51.946;4.838;2023-05-10T07:15:08;14.50;99.90
39371;DHT22;25099;51.946;4.838;2023-05-10T07:17:34;14.40;99.90
39371;DHT22;25099;51.946;4.838;2023-05-10T07:20:00;14.40;99.90
39371;DHT22;25099;51.946;4.838;2023-05-10T07:22:26;14.40;99.90
39371;DHT22;25099;51.946;4.838;2023-05-10T07:24:52;14.40;99.90
39371;DHT22;25099;51.946;4.838;2023-05-10T07:27:17;14.40;99.90
39371;DHT22;25099;51.946;4.838;2023-05-10T07:29:43;14.40;99.90
39371;DHT22;25099;51.946;4.838;2023-05-10T07:32:08;14.50;99.90
39371;DHT22;25099;51.946;4.838;2023-05-10T07:34:34;14.50;99.90
39371;DHT22;25099;51.946;4.838;2023-05-10T07:37:00;14.50;99.90
39371;DHT22;25099;51.946;4.838;2023-05-10T07:39:26;14.40;99.90
39371;DHT22;25099;51.946;4.838;2023-05-10T07:41:54;14.50;99.90
39371;DHT22;25099;51.946;4.838;2023-05-10T07:44:20;14.60;99.90
39371;DHT22;25099;51.946;4.838;2023-05-10T07:46:46;14.60;99.90
39371;DHT22;25099;51.946;4.838;2023-05-10T07:49:11;14.60;99.90
39371;DHT22;25099;51.946;4.838;2023-05-10T07:51:37;14.60;99.90
39371;DHT22;25099;51.946;4.838;2023-05-10T07:54:03;14.60;99.90
39371;DHT22;25099;51.946;4.838;2023-05-10T07:56:32;14.50;99.90
39371;DHT22;25099;51.946;4.838;2023-05-10T07:58:58;14.50;99.90
39371;DHT22;25099;51.946;4.838;2023-05-10T08:01:24;14.60;99.90
39371;DHT22;25099;51.946;4.838;2023-05-10T08:03:50;14.60;99.90
39371;DHT22;25099;51.946;4.838;2023-05-10T08:06:17;14.60;99.90
39371;DHT22;25099;51.946;4.838;2023-05-10T08:08:43;14.50;99.90
39371;DHT22;25099;51.946;4.838;2023-05-10T08:11:10;14.60;99.90
39371;DHT22;25099;51.946;4.838;2023-05-10T08:13:36;14.60;99.90
39371;DHT22;25099;51.946;4.838;2023-05-10T08:16:02;14.60;99.90
39371;DHT22;25099;51.946;4.838;2023-05-10T08:18:27;15.00;99.90
39371;DHT22;25099;51.946;4.838;2023-05-10T08:20:53;14.70;99.90
39371;DHT22;25099;51.946;4.838;2023-05-10T08:23:19;14.60;99.90
39371;DHT22;25099;51.946;4.838;2023-05-10T08:25:44;14.60;99.90
39371;DHT22;25099;51.946;4.838;2023-05-10T08:28:10;14.70;99.90
39371;DHT22;25099;51.946;4.838;2023-05-10T08:30:35;14.60;99.90
39371;DHT22;25099;51.946;4.838;2023-05-10T08:33:01;14.70;99.90
39371;DHT22;25099;51.946;4.838;2023-05-10T08:35:26;14.60;99.90
39371;DHT22;25099;51.946;4.838;2023-05-10T08:37:52;14.70;99.90
39371;DHT22;25099;51.946;4.838;2023-05-10T08:40:19;14.70;99.90
39371;DHT22;25099;51.946;4.838;2023-05-10T08:42:51;14.70;99.90
39371;DHT22;25099;51.946;4.838;2023-05-10T08:45:20;14.70;99.90
39371;DHT22;25099;51.946;4.838;2023-05-10T08:47:47;14.70;99.90
39371;DHT22;25099;51.946;4.838;2023-05-10T08:50:13;14.70;99.90
39371;DHT22;25099;51.946;4.838;2023-05-10T08:52:40;14.70;99.90
39371;DHT22;25099;51.946;4.838;2023-05-10T08:55:06;14.70;99.90
39371;DHT22;25099;51.946;4.838;2023-05-10T08:57:32;14.70;99.90
39371;DHT22;25099;51.946;4.838;2023-05-10T08:59:59;14.70;99.90
39371;DHT22;25099;51.946;4.838;2023-05-10T09:02:26;14.70;99.90
39371;DHT22;25099;51.946;4.838;2023-05-10T09:04:52;14.70;99.90
39371;DHT22;25099;51.946;4.838;2023-05-10T09:07:18;14.70;99.90
39371;DHT22;25099;51.946;4.838;2023-05-10T09:09:45;14.70;99.90
39371;DHT22;25099;51.946;4.838;2023-05-10T09:12:12;14.70;99.90
39371;DHT22;25099;51.946;4.838;2023-05-10T09:14:38;14.70;99.90
39371;DHT22;25099;51.946;4.838;2023-05-10T09:17:04;14.70;99.90
39371;DHT22;25099;51.946;4.838;2023-05-10T09:19:30;14.80;99.90
39371;DHT22;25099;51.946;4.838;2023-05-10T09:21:56;14.80;99.90
39371;DHT22;25099;51.946;4.838;2023-05-10T09:24:25;14.80;99.90
39371;DHT22;25099;51.946;4.838;2023-05-10T09:26:51;14.80;99.90
39371;DHT22;25099;51.946;4.838;2023-05-10T09:29:17;14.80;99.90
39371;DHT22;25099;51.946;4.838;2023-05-10T09:31:45;15.00;99.90
39371;DHT22;25099;51.946;4.838;2023-05-10T09:34:19;14.90;99.90
39371;DHT22;25099;51.946;4.838;2023-05-10T09:36:53;14.90;99.90
39371;DHT22;25099;51.946;4.838;2023-05-10T09:39:19;14.90;99.90
39371;DHT22;25099;51.946;4.838;2023-05-10T09:41:45;14.90;99.90
39371;DHT22;25099;51.946;4.838;2023-05-10T09:44:11;14.90;99.90
39371;DHT22;25099;51.946;4.838;2023-05-10T09:46:36;14.90;99.90
39371;DHT22;25099;51.946;4.838;2023-05-10T09:49:02;15.00;99.90
39371;DHT22;25099;51.946;4.838;2023-05-10T09:51:27;14.90;99.90
39371;DHT22;25099;51.946;4.838;2023-05-10T09:54:13;15.00;99.90
39371;DHT22;25099;51.946;4.838;2023-05-10T09:56:39;15.00;99.90
39371;DHT22;25099;51.946;4.838;2023-05-10T09:59:10;15.00;99.90
39371;DHT22;25099;51.946;4.838;2023-05-10T10:01:36;15.00;99.90
39371;DHT22;25099;51.946;4.838;2023-05-10T10:04:06;15.10;99.90
39371;DHT22;25099;51.946;4.838;2023-05-10T10:06:38;15.10;99.90
39371;DHT22;25099;51.946;4.838;2023-05-10T10:09:08;15.10;99.90
39371;DHT22;25099;51.946;4.838;2023-05-10T10:11:35;15.10;99.90
39371;DHT22;25099;51.946;4.838;2023-05-10T10:14:01;15.10;99.90
39371;DHT22;25099;51.946;4.838;2023-05-10T10:16:29;15.20;99.90
39371;DHT22;25099;51.946;4.838;2023-05-10T10:18:55;15.10;99.90
39371;DHT22;25099;51.946;4.838;2023-05-10T10:21:22;15.10;99.90
39371;DHT22;25099;51.946;4.838;2023-05-10T10:23:47;15.10;99.90
39371;DHT22;25099;51.946;4.838;2023-05-10T10:26:14;15.00;99.90
39371;DHT22;25099;51.946;4.838;2023-05-10T10:31:41;15.00;99.90
39371;DHT22;25099;51.946;4.838;2023-05-10T10:34:17;14.90;99.90
39371;DHT22;25099;51.946;4.838;2023-05-10T10:36:47;15.00;99.90
39371;DHT22;25099;51.946;4.838;2023-05-10T10:39:14;14.90;99.90
39371;DHT22;25099;51.946;4.838;2023-05-10T10:41:48;14.90;99.90
39371;DHT22;25099;51.946;4.838;2023-05-10T10:49:27;14.80;99.90
39371;DHT22;25099;51.946;4.838;2023-05-10T10:52:12;14.80;99.90
39371;DHT22;25099;51.946;4.838;2023-05-10T10:54:38;14.90;99.90
39371;DHT22;25099;51.946;4.838;2023-05-10T10:57:14;14.80;99.90
39371;DHT22;25099;51.946;4.838;2023-05-10T10:59:43;14.90;99.90
39371;DHT22;25099;51.946;4.838;2023-05-10T11:02:54;14.80;99.90
39371;DHT22;25099;51.946;4.838;2023-05-10T11:07:55;14.80;99.90
39371;DHT22;25099;51.946;4.838;2023-05-10T11:10:22;14.80;99.90
39371;DHT22;25099;51.946;4.838;2023-05-10T11:12:52;14.80;99.90
39371;DHT22;25099;51.946;4.838;2023-05-10T11:15:19;14.80;99.90
39371;DHT22;25099;51.946;4.838;2023-05-10T11:17:45;14.80;99.90
39371;DHT22;25099;51.946;4.838;2023-05-10T11:20:17;14.80;99.90
39371;DHT22;25099;51.946;4.838;2023-05-10T11:22:54;14.90;99.90
39371;DHT22;25099;51.946;4.838;2023-05-10T11:25:23;14.90;99.90
39371;DHT22;25099;51.946;4.838;2023-05-10T11:27:51;14.90;99.90
39371;DHT22;25099;51.946;4.838;2023-05-10T11:30:17;15.00;99.90
39371;DHT22;25099;51.946;4.838;2023-05-10T11:32:43;15.00;99.90
39371;DHT22;25099;51.946;4.838;2023-05-10T11:35:10;15.00;99.90
39371;DHT22;25099;51.946;4.838;2023-05-10T11:37:37;15.00;99.90
39371;DHT22;25099;51.946;4.838;2023-05-10T11:40:07;15.00;99.90
39371;DHT22;25099;51.946;4.838;2023-05-10T11:42:37;15.00;99.90
39371;DHT22;25099;51.946;4.838;2023-05-10T11:45:02;14.90;99.90
39371;DHT22;25099;51.946;4.838;2023-05-10T11:47:28;15.00;99.90
39371;DHT22;25099;51.946;4.838;2023-05-10T11:49:53;15.00;99.90
39371;DHT22;25099;51.946;4.838;2023-05-10T11:52:19;15.00;99.90
39371;DHT22;25099;51.946;4.838;2023-05-10T11:54:52;15.00;99.90
39371;DHT22;25099;51.946;4.838;2023-05-10T11:57:20;15.00;99.90
39371;DHT22;25099;51.946;4.838;2023-05-10T11:59:46;15.10;99.90
39371;DHT22;25099;51.946;4.838;2023-05-10T12:02:15;15.00;99.90
39371;DHT22;25099;51.946;4.838;2023-05-10T12:04:41;15.00;99.90
39371;DHT22;25099;51.946;4.838;2023-05-10T12:07:07;14.90;99.90
39371;DHT22;25099;51.946;4.838;2023-05-10T12:09:32;14.90;99.90
39371;DHT22;25099;51.946;4.838;2023-05-10T12:11:58;14.90;99.90
39371;DHT22;25099;51.946;4.838;2023-05-10T12:14:23;14.90;99.90
39371;DHT22;25099;51.946;4.838;2023-05-10T12:16:49;14.90;99.90
39371;DHT22;25099;51.946;4.838;2023-05-10T12:19:19;15.00;99.90
39371;DHT22;25099;51.946;4.838;2023-05-10T12:21:45;14.90;99.90
39371;DHT22;25099;51.946;4.838;2023-05-10T12:24:11;14.90;99.90
39371;DHT22;25099;51.946;4.838;2023-05-10T12:26:37;14.90;99.90
39371;DHT22;25099;51.946;4.838;2023-05-10T12:29:19;14.90;99.90
39371;DHT22;25099;51.946;4.838;2023-05-10T12:31:58;15.00;99.90
39371;DHT22;25099;51.946;4.838;2023-05-10T12:34:26;14.90;99.90
39371;DHT22;25099;51.946;4.838;2023-05-10T12:36:53;14.90;99.90
39371;DHT22;25099;51.946;4.838;2023-05-10T12:39:18;15.00;99.90
39371;DHT22;25099;51.946;4.838;2023-05-10T12:41:44;14.90;99.90
39371;DHT22;25099;51.946;4.838;2023-05-10T12:44:10;14.90;99.90
39371;DHT22;25099;51.946;4.838;2023-05-10T12:46:35;14.90;99.90
39371;DHT22;25099;51.946;4.838;2023-05-10T12:49:01;14.90;99.90
39371;DHT22;25099;51.946;4.838;2023-05-10T12:51:26;14.90;99.90
39371;DHT22;25099;51.946;4.838;2023-05-10T12:53:52;15.00;99.90
39371;DHT22;25099;51.946;4.838;2023-05-10T12:56:18;15.00;99.90
39371;DHT22;25099;51.946;4.838;2023-05-10T12:58:43;15.00;99.90
39371;DHT22;25099;51.946;4.838;2023-05-10T13:01:16;15.00;99.90
39371;DHT22;25099;51.946;4.838;2023-05-10T13:03:41;15.00;99.90
39371;DHT22;25099;51.946;4.838;2023-05-10T13:06:08;14.90;99.90
39371;DHT22;25099;51.946;4.838;2023-05-10T13:08:34;15.00;99.90
39371;DHT22;25099;51.946;4.838;2023-05-10T13:11:02;15.00;99.90
39371;DHT22;25099;51.946;4.838;2023-05-10T13:13:28;15.00;99.90
39371;DHT22;25099;51.946;4.838;2023-05-10T13:15:54;15.00;99.90
39371;DHT22;25099;51.946;4.838;2023-05-10T13:18:19;15.00;99.90
39371;DHT22;25099;51.946;4.838;2023-05-10T13:20:45;15.00;99.90
39371;DHT22;25099;51.946;4.838;2023-05-10T13:23:11;15.00;99.90
39371;DHT22;25099;51.946;4.838;2023-05-10T13:25:36;15.50;99.90
39371;DHT22;25099;51.946;4.838;2023-05-10T13:28:02;15.10;99.90
39371;DHT22;25099;51.946;4.838;2023-05-10T13:30:27;15.10;99.90
39371;DHT22;25099;51.946;4.838;2023-05-10T13:32:54;15.10;99.90
39371;DHT22;25099;51.946;4.838;2023-05-10T13:35:20;15.10;99.90
39371;DHT22;25099;51.946;4.838;2023-05-10T13:37:45;15.10;99.90
39371;DHT22;25099;51.946;4.838;2023-05-10T13:40:11;15.10;99.90
39371;DHT22;25099;51.946;4.838;2023-05-10T13:42:37;15.10;99.90
39371;DHT22;25099;51.946;4.838;2023-05-10T13:45:03;15.10;99.90
39371;DHT22;25099;51.946;4.838;2023-05-10T13:47:28;15.10;99.90
39371;DHT22;25099;51.946;4.838;2023-05-10T13:49:54;15.10;99.90
39371;DHT22;25099;51.946;4.838;2023-05-10T13:52:20;15.10;99.90
39371;DHT22;25099;51.946;4.838;2023-05-10T13:54:45;15.10;99.90
39371;DHT22;25099;51.946;4.838;2023-05-10T13:57:11;15.10;99.90
39371;DHT22;25099;51.946;4.838;2023-05-10T13:59:39;15.10;99.90
39371;DHT22;25099;51.946;4.838;2023-05-10T14:02:05;15.10;99.90
39371;DHT22;25099;51.946;4.838;2023-05-10T14:04:31;15.10;99.90
39371;DHT22;25099;51.946;4.838;2023-05-10T14:06:57;15.10;99.90
39371;DHT22;25099;51.946;4.838;2023-05-10T14:09:23;15.00;99.90
39371;DHT22;25099;51.946;4.838;2023-05-10T14:11:48;15.00;99.90
39371;DHT22;25099;51.946;4.838;2023-05-10T14:14:14;15.00;99.90
39371;DHT22;25099;51.946;4.838;2023-05-10T14:16:43;15.00;99.90
39371;DHT22;25099;51.946;4.838;2023-05-10T14:19:10;15.00;99.90
39371;DHT22;25099;51.946;4.838;2023-05-10T14:21:35;15.00;99.90
39371;DHT22;25099;51.946;4.838;2023-05-10T14:24:01;15.10;99.90
39371;DHT22;25099;51.946;4.838;2023-05-10T14:26:26;15.00;99.90
39371;DHT22;25099;51.946;4.838;2023-05-10T14:28:52;15.00;99.90
39371;DHT22;25099;51.946;4.838;2023-05-10T14:31:18;15.00;99.90
39371;DHT22;25099;51.946;4.838;2023-05-10T14:33:46;15.10;99.90
39371;DHT22;25099;51.946;4.838;2023-05-10T14:36:11;15.00;99.90
39371;DHT22;25099;51.946;4.838;2023-05-10T14:38:37;15.00;99.90
39371;DHT22;25099;51.946;4.838;2023-05-10T14:41:03;15.00;99.90
39371;DHT22;25099;51.946;4.838;2023-05-10T14:43:28;15.00;99.90
39371;DHT22;25099;51.946;4.838;2023-05-10T14:45:54;14.90;99.90
39371;DHT22;25099;51.946;4.838;2023-05-10T14:48:21;14.90;99.90
39371;DHT22;25099;51.946;4.838;2023-05-10T14:50:46;14.80;99.90
39371;DHT22;25099;51.946;4.838;2023-05-10T14:53:12;14.80;99.90
39371;DHT22;25099;51.946;4.838;2023-05-10T14:55:37;14.80;99.90
39371;DHT22;25099;51.946;4.838;2023-05-10T14:58:04;14.80;99.90
39371;DHT22;25099;51.946;4.838;2023-05-10T15:00:30;14.80;99.90
39371;DHT22;25099;51.946;4.838;2023-05-10T15:02:56;14.80;99.90
39371;DHT22;25099;51.946;4.838;2023-05-10T15:05:22;14.90;99.90
39371;DHT22;25099;51.946;4.838;2023-05-10T15:07:48;14.90;99.90
39371;DHT22;25099;51.946;4.838;2023-05-10T15:10:14;14.90;99.90
39371;DHT22;25099;51.946;4.838;2023-05-10T15:12:40;15.00;99.90
39371;DHT22;25099;51.946;4.838;2023-05-10T15:15:06;15.00;99.90
39371;DHT22;25099;51.946;4.838;2023-05-10T15:17:33;15.00;99.90
39371;DHT22;25099;51.946;4.838;2023-05-10T15:19:58;15.00;99.90
39371;DHT22;25099;51.946;4.838;2023-05-10T15:22:24;15.00;99.90
39371;DHT22;25099;51.946;4.838;2023-05-10T15:24:49;15.10;99.90
39371;DHT22;25099;51.946;4.838;2023-05-10T15:27:15;15.10;99.90
39371;DHT22;25099;51.946;4.838;2023-05-10T15:29:41;15.10;99.90
39371;DHT22;25099;51.946;4.838;2023-05-10T15:32:06;15.10;99.90
39371;DHT22;25099;51.946;4.838;2023-05-10T15:34:32;15.10;99.90
39371;DHT22;25099;51.946;4.838;2023-05-10T15:36:57;15.20;99.90
39371;DHT22;25099;51.946;4.838;2023-05-10T15:39:23;15.20;99.90
39371;DHT22;25099;51.946;4.838;2023-05-10T15:41:49;15.20;99.90
39371;DHT22;25099;51.946;4.838;2023-05-10T15:44:14;15.30;99.90
39371;DHT22;25099;51.946;4.838;2023-05-10T15:46:40;15.20;99.90
39371;DHT22;25099;51.946;4.838;2023-05-10T15:49:05;15.30;99.90
39371;DHT22;25099;51.946;4.838;2023-05-10T15:51:31;15.40;99.90
39371;DHT22;25099;51.946;4.838;2023-05-10T15:53:58;15.30;99.90